Anchorage/Lake Hood Seaplane Base, Alaska
Current Conditions -  °F | °C
As of 2:53 PM on Wednesday 26 Nov 2014 (Local Time) from PALH Reporting Station
Clear Clear  
Wind Chill: 19°   Ceiling: Unl
Heat Index: 26°   Visibility: 10mi
Dew Point: 21°   Wind: 6mph
Humidity: 81%   Direction: 60°ENE
Pressure: 30.33"   Gusts: NA
Location:  61.18°N, 149.97°W
Report Text: PALH 262353Z 06005KT 10SM CLR M03/M06 A3033 RMK AO2 SLP269 T10331061 11022 21033 58010
Loading
Personal Weather Stations






























Interactive Weather Map New forecast layout! Learn more

10-Day Weather Forecast

Advertisements
Track Severe Weather on mobile